Time;durP1;ratioP1;P1;durP2;ratioP2;P2;SDS_P1;SDS_P2;PMS_P1;PMS_P2;Temp;Humidity;BMP_temperature;BMP_pressure;BME280_temperature;BME280_humidity;BME280_pressure;Samples;Min_cycle;Max_cycle;Signal;HPM_P1;HPM_P2
2021/04/19 00:01:45;;;;;;;27.95;21.45;;;;;;;12.00;65.80;101180.63;5003026;28;20062;-66
2021/04/19 00:04:11;;;;;;;28.65;21.60;;;;;;;12.36;63.72;101175.06;4984567;28;20030;-66
2021/04/19 00:06:37;;;;;;;26.05;20.67;;;;;;;12.43;63.03;101180.31;4994044;28;20081;-66
2021/04/19 00:09:03;;;;;;;27.85;21.52;;;;;;;11.61;66.09;101173.78;4994668;28;20022;-66
2021/04/19 00:11:28;;;;;;;28.00;21.80;;;;;;;11.04;68.86;101174.94;4996004;28;20033;-66
2021/04/19 00:13:54;;;;;;;27.73;21.20;;;;;;;11.03;69.03;101178.41;5013519;28;20040;-66
2021/04/19 00:16:19;;;;;;;25.67;22.15;;;;;;;11.82;67.18;101179.84;4985580;28;20089;-66
2021/04/19 00:18:44;;;;;;;25.48;20.70;;;;;;;11.36;67.13;101175.66;5013001;28;20063;-66
2021/04/19 00:21:09;;;;;;;25.17;20.60;;;;;;;11.23;67.81;101177.47;4978527;28;20038;-66
2021/04/19 00:23:35;;;;;;;27.48;21.45;;;;;;;11.18;68.13;101187.19;4976544;28;20432;-66
2021/04/19 00:26:00;;;;;;;27.80;21.90;;;;;;;11.06;68.87;101181.06;4989629;28;20416;-66
2021/04/19 00:28:25;;;;;;;28.38;22.05;;;;;;;10.91;68.44;101179.34;4994091;28;20121;-66
2021/04/19 00:30:51;;;;;;;31.00;23.13;;;;;;;10.79;70.77;101182.88;4998628;28;20026;-66
2021/04/19 00:33:16;;;;;;;23.50;19.85;;;;;;;10.84;68.82;101178.47;4980629;28;20022;-66
2021/04/19 00:35:41;;;;;;;25.90;20.35;;;;;;;11.16;67.88;101174.88;4976055;28;20401;-66
2021/04/19 00:38:07;;;;;;;23.23;20.23;;;;;;;11.12;67.29;101178.41;4977856;28;20466;-66
2021/04/19 00:40:33;;;;;;;29.10;23.30;;;;;;;11.38;66.56;101163.34;5000624;28;20058;-66
2021/04/19 00:42:58;;;;;;;28.08;21.67;;;;;;;11.54;66.76;101164.16;4988436;28;20022;-66
2021/04/19 00:45:23;;;;;;;28.35;22.08;;;;;;;10.95;68.33;101174.94;4995375;28;20079;-66
2021/04/19 00:47:49;;;;;;;27.23;22.67;;;;;;;10.84;69.03;101167.91;4965010;28;20034;-66
2021/04/19 00:50:20;;;;;;;28.80;22.02;;;;;;;10.98;70.55;101174.94;5000057;28;20038;-66
2021/04/19 00:52:45;;;;;;;27.63;21.50;;;;;;;10.91;68.33;101174.06;4975959;28;20030;-66
2021/04/19 00:55:14;;;;;;;29.42;23.55;;;;;;;10.98;70.06;101165.25;4975908;28;20027;-66
2021/04/19 00:57:40;;;;;;;31.52;23.90;;;;;;;10.69;70.35;101173.22;4959630;28;20058;-66
2021/04/19 01:00:11;;;;;;;27.67;22.27;;;;;;;11.12;69.25;101169.59;4982520;28;20044;-66
2021/04/19 01:02:38;;;;;;;30.43;24.37;;;;;;;11.11;68.15;101166.06;4976629;28;20033;-66
2021/04/19 01:05:09;;;;;;;30.33;23.42;;;;;;;10.54;70.40;101169.75;4978909;28;20041;-66
2021/04/19 01:07:34;;;;;;;28.35;22.38;;;;;;;10.22;71.43;101171.47;4994650;28;20026;-66
2021/04/19 01:10:00;;;;;;;24.88;20.30;;;;;;;10.53;71.65;101162.69;4996867;28;20023;-66
2021/04/19 01:12:25;;;;;;;29.88;22.60;;;;;;;10.91;70.00;101174.94;5011291;28;20485;-66
2021/04/19 01:14:50;;;;;;;29.33;23.95;;;;;;;11.12;69.66;101173.13;4993019;28;20030;-66
2021/04/19 01:17:16;;;;;;;28.15;22.40;;;;;;;10.75;70.29;101165.31;5006562;28;20036;-66
2021/04/19 01:19:41;;;;;;;27.30;21.98;;;;;;;11.36;68.95;101162.47;5012591;28;20025;-66
2021/04/19 01:22:07;;;;;;;27.35;21.13;;;;;;;11.15;68.64;101167.84;4993128;28;20037;-66
2021/04/19 01:24:32;;;;;;;28.15;22.88;;;;;;;11.21;69.03;101166.94;5009788;28;20033;-66
2021/04/19 01:26:57;;;;;;;27.23;21.75;;;;;;;11.04;68.49;101165.22;5010160;28;20029;-66
2021/04/19 01:29:23;;;;;;;28.63;21.98;;;;;;;11.01;69.34;101165.22;5010085;28;20034;-66
2021/04/19 01:31:48;;;;;;;30.02;23.83;;;;;;;11.22;69.94;101167.81;4978515;28;20026;-66
2021/04/19 01:34:13;;;;;;;28.50;22.45;;;;;;;11.27;66.89;101158.13;5007001;28;20060;-66
2021/04/19 01:36:38;;;;;;;31.25;24.20;;;;;;;11.53;68.19;101159.75;5003511;28;20030;-66
2021/04/19 01:39:04;;;;;;;29.15;20.10;;;;;;;11.14;67.68;101155.50;4975398;28;20030;-66
2021/04/19 01:41:30;;;;;;;27.65;22.15;;;;;;;11.03;68.79;101163.47;5004652;28;20113;-66
2021/04/19 01:43:55;;;;;;;28.13;22.23;;;;;;;10.83;69.78;101160.88;4982855;28;20575;-66
2021/04/19 01:46:21;;;;;;;26.73;21.70;;;;;;;10.66;71.00;101155.63;4992398;28;20026;-66
2021/04/19 01:48:47;;;;;;;28.30;22.65;;;;;;;10.76;71.12;101148.59;4975044;28;20041;-66
2021/04/19 01:51:12;;;;;;;27.77;22.35;;;;;;;10.67;70.40;101156.53;5002805;28;20536;-66
2021/04/19 01:53:37;;;;;;;29.63;22.98;;;;;;;10.71;70.54;101160.91;5002488;28;20026;-65
2021/04/19 01:56:03;;;;;;;26.67;21.20;;;;;;;10.58;69.96;101163.59;4974842;28;20038;-66
2021/04/19 01:58:28;;;;;;;27.48;20.98;;;;;;;11.08;69.35;101170.50;4998797;28;20033;-66
2021/04/19 02:00:58;;;;;;;23.02;18.70;;;;;;;10.62;68.94;101162.69;4992529;28;20032;-66
2021/04/19 02:03:46;;;;;;;26.58;20.00;;;;;;;10.73;69.96;101162.66;4996801;28;20022;-66
2021/04/19 02:06:36;;;;;;;24.40;20.08;;;;;;;10.95;69.61;101159.97;4993681;28;20022;-66
2021/04/19 02:09:09;;;;;;;25.25;20.75;;;;;;;10.58;68.72;101155.66;4982488;28;20030;-66
2021/04/19 02:11:49;;;;;;;24.35;19.13;;;;;;;10.08;70.60;101165.31;4984553;28;20034;-66
2021/04/19 02:14:27;;;;;;;27.83;20.63;;;;;;;10.12;71.79;101162.69;4985454;28;20022;-66
2021/04/19 02:16:55;;;;;;;25.38;19.70;;;;;;;10.73;70.32;101164.41;4993626;28;20079;-66
2021/04/19 02:19:34;;;;;;;25.92;20.35;;;;;;;11.29;68.52;101156.34;4991342;28;20381;-66
2021/04/19 02:22:14;;;;;;;28.55;22.27;;;;;;;11.00;67.60;101159.94;4997143;28;20025;-66
2021/04/19 02:24:46;;;;;;;25.38;20.30;;;;;;;10.82;67.99;101167.06;4983775;28;20033;-66
2021/04/19 02:27:18;;;;;;;27.85;21.83;;;;;;;11.27;67.33;101166.03;5012777;28;20064;-66
2021/04/19 02:29:47;;;;;;;32.22;22.63;;;;;;;10.98;68.20;101170.53;4993847;28;20030;-66
2021/04/19 02:32:16;;;;;;;26.95;20.23;;;;;;;11.04;68.02;101159.09;4978706;28;20057;-66
2021/04/19 02:34:43;;;;;;;30.17;23.00;;;;;;;11.46;67.93;101156.25;4992743;28;20065;-66
2021/04/19 02:37:09;;;;;;;28.40;22.23;;;;;;;11.14;68.63;101155.50;5004251;28;20029;-65
2021/04/19 02:39:38;;;;;;;37.03;25.40;;;;;;;10.78;69.29;101162.66;4995150;28;20493;-66
2021/04/19 02:42:05;;;;;;;34.65;23.70;;;;;;;10.88;68.72;101164.38;4978510;28;20034;-66
2021/04/19 02:44:31;;;;;;;33.35;24.10;;;;;;;11.78;67.21;101162.25;4991508;28;20110;-66
2021/04/19 02:46:58;;;;;;;32.88;24.42;;;;;;;11.93;66.37;101166.53;5014335;28;20037;-66
2021/04/19 02:49:26;;;;;;;35.38;24.85;;;;;;;11.50;65.86;101167.66;4997960;28;20026;-66
2021/04/19 02:51:52;;;;;;;35.38;24.60;;;;;;;10.78;69.01;101166.16;4997399;28;20026;-66
2021/04/19 02:54:21;;;;;;;34.53;25.40;;;;;;;10.88;70.29;101167.00;4995413;28;20129;-66
2021/04/19 02:56:47;;;;;;;34.28;25.55;;;;;;;11.76;64.77;101164.00;4995693;28;20032;-66
2021/04/19 02:59:13;;;;;;;35.75;22.85;;;;;;;11.27;65.94;101166.03;5013678;28;20100;-66
2021/04/19 03:01:41;;;;;;;33.13;24.10;;;;;;;10.67;68.87;101170.56;4986137;28;20437;-66
2021/04/19 03:04:12;;;;;;;32.80;23.50;;;;;;;11.19;67.96;101173.97;4985198;28;20033;-66
2021/04/19 03:06:40;;;;;;;33.05;24.42;;;;;;;11.63;65.19;101169.38;4991682;28;20037;-66
2021/04/19 03:09:06;;;;;;;31.73;23.27;;;;;;;11.18;67.82;101164.31;4994947;28;20033;-66
2021/04/19 03:11:43;;;;;;;35.60;23.55;;;;;;;11.80;64.43;101160.47;4995508;28;20329;-66
2021/04/19 03:14:10;;;;;;;32.05;23.05;;;;;;;10.88;68.79;101152.97;4988058;28;20109;-66
2021/04/19 03:16:39;;;;;;;34.70;25.25;;;;;;;11.41;67.14;101174.75;4977440;28;20030;-66
2021/04/19 03:19:06;;;;;;;33.30;22.65;;;;;;;10.72;68.13;101174.09;4981841;28;20428;-66
2021/04/19 03:21:36;;;;;;;32.45;22.48;;;;;;;10.72;68.65;101170.56;4995681;28;20100;-66
2021/04/19 03:24:03;;;;;;;30.58;21.83;;;;;;;11.08;66.87;101175.78;4985308;28;20485;-66
2021/04/19 03:26:32;;;;;;;29.48;21.92;;;;;;;10.68;69.10;101172.38;4982237;28;20065;-66
2021/04/19 03:28:58;;;;;;;32.78;23.30;;;;;;;11.31;66.43;101175.72;5003678;28;20477;-66
2021/04/19 03:31:26;;;;;;;33.05;24.38;;;;;;;11.40;64.91;101178.28;4993118;28;20076;-67
2021/04/19 03:33:53;;;;;;;33.78;22.13;;;;;;;11.29;66.31;101180.09;4987698;28;20109;-66
2021/04/19 03:36:19;;;;;;;30.70;22.25;;;;;;;11.15;65.43;101183.69;4996461;28;20080;-66
2021/04/19 03:38:46;;;;;;;27.67;20.60;;;;;;;11.05;66.41;101176.66;4996907;28;20018;-66
2021/04/19 03:41:12;;;;;;;32.53;20.85;;;;;;;10.78;66.48;101181.13;4991978;28;20080;-66
2021/04/19 03:43:38;;;;;;;34.65;22.23;;;;;;;10.14;69.78;101181.13;4981292;28;20500;-66
2021/04/19 03:46:05;;;;;;;30.50;21.98;;;;;;;9.83;72.12;101179.31;4988556;28;20065;-66
2021/04/19 03:48:32;;;;;;;36.70;23.77;;;;;;;10.25;70.42;101181.13;4994829;28;20026;-66
2021/04/19 03:51:03;;;;;;;29.05;21.23;;;;;;;10.34;69.92;101193.44;4998869;28;20056;-66
2021/04/19 03:53:29;;;;;;;29.55;22.08;;;;;;;10.32;67.95;101185.53;4976618;28;20021;-65
2021/04/19 03:55:56;;;;;;;23.30;18.70;;;;;;;10.27;68.10;101182.00;5013314;28;20034;-66
2021/04/19 03:58:23;;;;;;;28.83;20.17;;;;;;;9.91;70.64;101175.81;4991694;28;20022;-66
2021/04/19 04:00:50;;;;;;;26.17;19.42;;;;;;;9.96;71.24;101180.22;4993085;28;20370;-66
2021/04/19 04:03:17;;;;;;;26.45;19.27;;;;;;;10.29;68.65;101184.63;4995322;28;20025;-66
2021/04/19 04:05:44;;;;;;;25.77;19.50;;;;;;;10.77;68.33;101192.53;4957413;28;20042;-66
2021/04/19 04:08:10;;;;;;;26.75;20.02;;;;;;;10.50;66.61;101191.69;4990133;28;20028;-66
2021/04/19 04:10:35;;;;;;;28.40;21.55;;;;;;;10.16;69.60;101183.75;4996522;28;20022;-66
2021/04/19 04:13:01;;;;;;;29.35;20.58;;;;;;;10.41;70.36;101197.84;4996253;28;20113;-66
2021/04/19 04:15:26;;;;;;;27.35;18.73;;;;;;;10.91;68.32;101198.69;4977826;28;20037;-66
2021/04/19 04:17:51;;;;;;;30.50;19.90;;;;;;;11.01;68.84;101190.75;4976627;28;20065;-66
2021/04/19 04:20:17;;;;;;;26.83;19.85;;;;;;;11.26;64.61;101190.66;4994053;28;20026;-66
2021/04/19 04:22:42;;;;;;;25.88;19.42;;;;;;;10.13;69.57;101196.06;4976968;28;20030;-66
2021/04/19 04:25:09;;;;;;;29.15;19.83;;;;;;;10.11;69.64;101192.53;4981150;28;20128;-66
2021/04/19 04:27:34;;;;;;;27.52;19.98;;;;;;;10.30;69.20;101202.22;4992456;28;20037;-66
2021/04/19 04:29:59;;;;;;;30.55;20.52;;;;;;;10.35;68.90;101197.84;5012258;28;20030;-66
2021/04/19 04:32:25;;;;;;;29.08;20.73;;;;;;;10.43;69.64;101203.13;4977829;28;20058;-66
2021/04/19 04:34:50;;;;;;;35.95;21.52;;;;;;;10.94;67.98;101210.13;5000060;28;20034;-66
2021/04/19 04:37:15;;;;;;;30.17;21.05;;;;;;;11.54;64.71;101201.16;4959842;28;20053;-66
2021/04/19 04:39:41;;;;;;;28.42;20.92;;;;;;;10.72;69.77;101199.59;5005567;28;20026;-66
2021/04/19 04:42:11;;;;;;;26.35;19.23;;;;;;;10.18;70.35;101205.72;4998468;28;20026;-66
2021/04/19 04:44:38;;;;;;;31.75;21.20;;;;;;;11.18;66.87;101209.19;5000410;28;20068;-66
2021/04/19 04:47:18;;;;;;;27.05;19.48;;;;;;;11.57;64.90;101203.75;4995123;28;20022;-66
2021/04/19 04:49:55;;;;;;;29.25;20.55;;;;;;;11.68;63.87;101203.72;5013173;28;20029;-66
2021/04/19 04:52:21;;;;;;;30.58;20.48;;;;;;;11.67;64.68;101201.94;5013168;28;20025;-66
2021/04/19 04:54:49;;;;;;;27.15;19.45;;;;;;;10.23;68.72;101204.84;4983226;28;20030;-66
2021/04/19 04:57:19;;;;;;;31.30;21.98;;;;;;;10.54;70.98;101213.69;4976726;28;20030;-66
2021/04/19 04:59:45;;;;;;;26.70;19.02;;;;;;;10.45;69.27;101211.94;4977078;28;20458;-66
2021/04/19 05:02:12;;;;;;;30.05;22.33;;;;;;;10.93;67.25;101214.53;4993177;28;20022;-66
2021/04/19 05:04:37;;;;;;;30.23;21.27;;;;;;;11.01;69.17;101222.44;4980303;28;20041;-65
2021/04/19 05:07:03;;;;;;;29.45;21.15;;;;;;;11.85;64.57;101227.41;4989263;28;20021;-66
2021/04/19 05:09:28;;;;;;;26.13;19.65;;;;;;;10.74;67.62;101224.25;5004565;28;20058;-66
2021/04/19 05:11:53;;;;;;;28.33;19.50;;;;;;;10.75;67.77;101226.00;4993166;28;20030;-66
2021/04/19 05:14:24;;;;;;;27.27;19.35;;;;;;;10.04;69.84;101219.75;4983141;28;20022;-66
2021/04/19 05:16:50;;;;;;;27.05;19.63;;;;;;;10.26;71.02;101220.69;4994661;28;20401;-66
2021/04/19 05:19:15;;;;;;;26.63;19.23;;;;;;;10.19;72.11;101221.56;5011732;28;20030;-67
2021/04/19 05:21:40;;;;;;;26.00;19.30;;;;;;;10.53;70.14;101215.44;4992872;28;20030;-66
2021/04/19 05:24:06;;;;;;;30.25;20.38;;;;;;;10.16;69.74;101210.09;4995042;28;20018;-66
2021/04/19 05:26:31;;;;;;;29.55;20.38;;;;;;;10.04;71.76;101211.84;5007507;28;20069;-66
2021/04/19 05:28:57;;;;;;;28.65;18.85;;;;;;;10.73;68.67;101212.78;4974617;28;20443;-67
2021/04/19 05:31:22;;;;;;;29.25;20.63;;;;;;;9.96;70.96;101225.03;4990219;28;20109;-66
2021/04/19 05:33:53;;;;;;;33.92;21.85;;;;;;;10.29;71.72;101227.72;5012121;28;20061;-67
2021/04/19 05:36:18;;;;;;;33.88;22.17;;;;;;;10.69;69.14;101236.53;5011982;28;20048;-66
2021/04/19 05:38:45;;;;;;;32.92;21.05;;;;;;;11.32;67.70;101230.28;4994929;28;20488;-66
2021/04/19 05:41:11;;;;;;;32.95;22.05;;;;;;;11.22;67.71;101237.34;5001756;28;20077;-66
2021/04/19 05:43:37;;;;;;;38.00;22.40;;;;;;;10.80;68.56;101237.41;4975385;28;20044;-66
2021/04/19 05:46:02;;;;;;;36.15;21.77;;;;;;;11.14;67.52;101226.78;4992228;28;20481;-67
2021/04/19 05:48:27;;;;;;;35.25;21.48;;;;;;;11.51;66.25;101233.72;4975229;28;20470;-66
2021/04/19 05:50:54;;;;;;;33.95;20.73;;;;;;;11.31;67.28;101232.91;5000110;28;20034;-67
2021/04/19 05:53:20;;;;;;;30.02;20.33;;;;;;;10.69;68.69;101231.25;4978054;28;20029;-66
2021/04/19 05:55:46;;;;;;;29.50;19.30;;;;;;;10.90;70.02;101239.16;4993960;28;20438;-66
2021/04/19 05:58:20;;;;;;;33.67;21.00;;;;;;;11.43;65.74;101238.16;4994564;28;20032;-66
2021/04/19 06:00:52;;;;;;;27.83;20.23;;;;;;;11.60;67.34;101247.78;4987591;28;20434;-66
2021/04/19 06:03:25;;;;;;;37.13;22.58;;;;;;;12.25;64.03;101242.19;4974955;28;20489;-66
2021/04/19 06:06:09;;;;;;;36.53;22.40;;;;;;;11.98;64.35;101243.19;4992117;28;20397;-66
2021/04/19 06:08:45;;;;;;;38.10;23.77;;;;;;;11.61;65.63;101237.19;4958931;28;20117;-66
2021/04/19 06:11:17;;;;;;;57.38;31.45;;;;;;;11.55;66.15;101240.72;4984606;28;20384;-66
2021/04/19 06:13:44;;;;;;;45.40;28.52;;;;;;;11.83;66.03;101242.38;4978139;28;20057;-66
2021/04/19 06:16:10;;;;;;;42.22;26.48;;;;;;;11.50;66.58;101236.34;4994077;28;20088;-66
2021/04/19 06:18:36;;;;;;;42.42;24.55;;;;;;;11.70;67.89;101243.34;4994422;28;20030;-66
2021/04/19 06:21:02;;;;;;;34.70;21.15;;;;;;;11.87;66.97;101240.63;4985927;28;20074;-66
2021/04/19 06:23:27;;;;;;;38.60;21.50;;;;;;;11.75;66.56;101234.50;4992296;28;20411;-66
2021/04/19 06:25:53;;;;;;;47.45;25.30;;;;;;;11.94;65.01;101240.56;4974723;28;20442;-66
2021/04/19 06:28:18;;;;;;;55.55;33.58;;;;;;;11.93;65.79;101238.81;4992035;28;20050;-67
2021/04/19 06:30:45;;;;;;;49.75;28.58;;;;;;;11.90;65.46;101249.38;4963819;28;20396;-66
2021/04/19 06:33:15;;;;;;;42.33;25.83;;;;;;;11.78;65.50;101241.53;4994220;28;20026;-66
2021/04/19 06:35:40;;;;;;;37.72;22.45;;;;;;;11.58;68.01;101250.44;4993895;28;20110;-66
2021/04/19 06:38:05;;;;;;;35.47;22.15;;;;;;;11.76;68.10;101238.00;4982841;28;20471;-67
2021/04/19 06:40:35;;;;;;;34.40;20.77;;;;;;;11.62;67.22;101236.31;4992182;28;20533;-66
2021/04/19 06:43:00;;;;;;;29.73;20.50;;;;;;;11.25;68.17;101247.00;4974745;28;20022;-65
2021/04/19 06:45:26;;;;;;;26.95;19.13;;;;;;;11.36;67.17;101249.59;4974527;28;20034;-66
2021/04/19 06:47:53;;;;;;;30.75;20.63;;;;;;;11.32;66.92;101254.03;4983342;28;20512;-66
2021/04/19 06:50:19;;;;;;;32.63;19.33;;;;;;;11.80;66.21;101264.41;5011579;28;20036;-67
2021/04/19 06:52:47;;;;;;;30.45;19.27;;;;;;;12.08;65.11;101262.53;5011657;28;20034;-66
2021/04/19 06:55:20;;;;;;;27.67;17.27;;;;;;;11.93;65.71;101251.13;4994683;28;20081;-66
2021/04/19 06:57:50;;;;;;;30.40;18.35;;;;;;;12.00;67.04;101246.72;4985806;28;20026;-67
2021/04/19 07:00:16;;;;;;;27.70;17.33;;;;;;;11.70;67.82;101253.91;4958429;28;20124;-66
2021/04/19 07:02:54;;;;;;;29.98;19.88;;;;;;;11.80;65.80;101251.22;4974642;28;20022;-66
2021/04/19 07:05:22;;;;;;;27.55;19.13;;;;;;;12.06;64.96;101257.25;4974384;28;20028;-67
2021/04/19 07:08:07;;;;;;;27.17;18.77;;;;;;;11.82;67.93;101243.28;4983073;28;20026;-66
2021/04/19 07:10:34;;;;;;;26.38;18.90;;;;;;;11.97;64.71;101242.28;4997756;28;20503;-66
2021/04/19 07:13:03;;;;;;;27.30;17.42;;;;;;;11.70;68.47;101245.97;4997525;28;20214;-66
2021/04/19 07:15:28;;;;;;;28.58;18.63;;;;;;;12.30;65.04;101244.75;5014648;28;20030;-66
2021/04/19 07:17:54;;;;;;;27.50;19.38;;;;;;;11.68;66.56;101246.84;4988477;28;20045;-66
2021/04/19 07:20:19;;;;;;;31.25;20.77;;;;;;;12.17;65.07;101254.56;4977667;28;20065;-66
2021/04/19 07:22:45;;;;;;;31.73;22.05;;;;;;;12.12;65.08;101251.94;4995227;28;20038;-66
2021/04/19 07:25:11;;;;;;;29.73;20.10;;;;;;;12.36;64.50;101252.66;4977680;28;20022;-67
2021/04/19 07:27:38;;;;;;;31.00;20.33;;;;;;;12.02;65.17;101250.22;5001041;28;20125;-66
2021/04/19 07:30:04;;;;;;;27.23;18.80;;;;;;;12.27;65.27;101242.16;5014619;28;20105;-66
2021/04/19 07:32:34;;;;;;;27.58;18.35;;;;;;;11.99;65.59;101242.28;4997084;28;20164;-66
2021/04/19 07:35:00;;;;;;;27.27;19.88;;;;;;;12.34;66.35;101241.19;4997009;28;20052;-66
2021/04/19 07:37:26;;;;;;;27.65;18.40;;;;;;;12.18;66.20;101241.31;4993364;28;20498;-65
2021/04/19 07:39:52;;;;;;;29.88;19.55;;;;;;;12.27;64.56;101239.53;4977742;28;20501;-66
2021/04/19 07:42:17;;;;;;;25.75;18.75;;;;;;;12.18;65.43;101236.03;4994944;28;20200;-66
2021/04/19 07:44:53;;;;;;;28.15;19.48;;;;;;;12.62;64.82;101245.41;4977395;28;20084;-66
2021/04/19 07:47:37;;;;;;;25.98;17.40;;;;;;;12.93;62.95;101232.78;4980227;28;20022;-66
2021/04/19 07:50:13;;;;;;;23.95;17.52;;;;;;;13.02;63.43;101239.75;4997119;28;20030;-66
2021/04/19 07:52:51;;;;;;;24.40;17.05;;;;;;;13.18;61.56;101243.09;5014343;28;20018;-66
2021/04/19 07:55:21;;;;;;;21.90;15.93;;;;;;;12.94;63.05;101238.97;4996499;28;20116;-66
2021/04/19 07:57:48;;;;;;;24.58;16.58;;;;;;;12.93;62.90;101235.41;5007111;28;20034;-66
2021/04/19 08:00:37;;;;;;;22.23;17.38;;;;;;;13.46;61.45;101233.97;4977475;28;20138;-66
2021/04/19 08:03:19;;;;;;;22.00;15.60;;;;;;;13.62;60.08;101231.16;4994558;28;20022;-66
2021/04/19 08:05:52;;;;;;;22.08;14.98;;;;;;;13.81;60.33;101231.78;4994081;28;20030;-66
2021/04/19 08:08:19;;;;;;;19.90;14.82;;;;;;;13.76;60.98;101223.91;4987264;28;20064;-67
2021/04/19 08:10:46;;;;;;;19.90;14.35;;;;;;;13.35;62.40;101234.97;4996511;28;20494;-65
2021/04/19 08:13:17;;;;;;;21.00;17.02;;;;;;;14.33;59.24;101226.59;4996411;28;20105;-66
2021/04/19 08:15:44;;;;;;;19.13;15.20;;;;;;;14.90;57.93;101230.09;4996259;28;20488;-66
2021/04/19 08:18:13;;;;;;;19.20;14.32;;;;;;;15.03;58.59;101222.78;4986391;28;20113;-66
2021/04/19 08:20:48;;;;;;;18.00;13.80;;;;;;;15.06;57.09;101227.16;4960791;28;20034;-66
2021/04/19 08:23:13;;;;;;;19.70;16.52;;;;;;;15.65;55.72;101218.84;4994309;28;20053;-66
2021/04/19 08:25:41;;;;;;;21.00;14.88;;;;;;;17.22;52.30;101223.97;4976429;28;20064;-66
2021/04/19 08:28:18;;;;;;;17.63;14.10;;;;;;;15.70;55.51;101228.56;4985042;28;20021;-66
2021/04/19 08:30:46;;;;;;;18.70;14.68;;;;;;;16.22;54.55;101228.28;4990267;28;20026;-66
2021/04/19 08:33:12;;;;;;;23.27;15.65;;;;;;;15.95;56.75;101228.91;4993912;28;20029;-66
2021/04/19 08:35:39;;;;;;;18.50;14.57;;;;;;;16.37;54.76;101230.56;4993493;28;20394;-67
2021/04/19 08:38:06;;;;;;;21.30;15.05;;;;;;;16.61;54.05;101228.19;5001871;28;20427;-66
2021/04/19 08:40:33;;;;;;;19.20;15.15;;;;;;;17.33;52.81;101242.31;4996030;28;20198;-66
2021/04/19 08:42:59;;;;;;;19.88;15.88;;;;;;;18.51;50.78;101235.19;4995871;28;20047;-66
2021/04/19 08:45:25;;;;;;;18.90;15.27;;;;;;;17.61;52.27;101233.50;4995536;28;20037;-67
2021/04/19 08:47:51;;;;;;;18.73;14.77;;;;;;;17.31;51.99;101237.03;5011395;28;20065;-67
2021/04/19 08:50:18;;;;;;;19.02;15.85;;;;;;;17.13;52.99;101240.22;5013175;28;20057;-67
2021/04/19 08:52:44;;;;;;;20.95;15.88;;;;;;;16.01;55.22;101238.53;4995861;28;20072;-67
2021/04/19 08:55:10;;;;;;;21.90;16.88;;;;;;;16.03;55.03;101237.59;4986735;28;20424;-66
2021/04/19 08:57:36;;;;;;;21.88;16.38;;;;;;;15.49;56.74;101236.94;4975924;28;20026;-66
2021/04/19 09:00:01;;;;;;;24.98;18.45;;;;;;;15.43;55.81;101237.06;4993437;28;20028;-66
2021/04/19 09:02:27;;;;;;;23.92;18.02;;;;;;;14.70;57.52;101241.91;4975876;28;20026;-66
2021/04/19 09:05:12;;;;;;;27.90;19.77;;;;;;;14.92;58.06;101246.88;4976450;28;20034;-67
2021/04/19 09:07:43;;;;;;;25.35;19.00;;;;;;;14.71;57.97;101242.81;4975737;28;20355;-66
2021/04/19 09:10:12;;;;;;;31.65;19.95;;;;;;;14.79;58.34;101240.03;4993203;28;20026;-66
2021/04/19 09:12:37;;;;;;;31.30;18.90;;;;;;;14.88;59.18;101245.19;4975829;28;20101;-66
2021/04/19 09:15:12;;;;;;;24.67;18.75;;;;;;;14.94;58.29;101239.75;4992978;28;20165;-66
2021/04/19 09:17:39;;;;;;;21.25;17.55;;;;;;;15.42;56.42;101243.28;4975637;28;20035;-66
2021/04/19 09:20:07;;;;;;;22.42;17.42;;;;;;;15.07;56.54;101234.25;4975787;28;20409;-66
2021/04/19 09:22:33;;;;;;;24.95;16.92;;;;;;;15.48;57.42;101236.97;4959709;28;20030;-66
2021/04/19 09:25:15;;;;;;;23.45;18.05;;;;;;;15.84;56.30;101239.72;4976661;28;20018;-66
2021/04/19 09:27:48;;;;;;;21.83;16.98;;;;;;;15.56;56.83;101242.13;4992695;28;20501;-67
2021/04/19 09:30:19;;;;;;;21.40;17.90;;;;;;;15.65;56.96;101241.94;4992644;28;20025;-66
2021/04/19 09:32:44;;;;;;;20.13;16.77;;;;;;;16.14;55.00;101226.69;4992908;28;20270;-66
2021/04/19 09:35:38;;;;;;;23.75;18.25;;;;;;;16.51;54.12;101234.69;4982698;28;20030;-66
2021/04/19 09:38:04;;;;;;;21.00;18.73;;;;;;;17.26;53.52;101224.75;4994617;28;20026;-66
2021/04/19 09:40:29;;;;;;;24.85;17.35;;;;;;;19.24;48.53;101229.13;5012305;28;20381;-66
2021/04/19 09:42:55;;;;;;;23.15;18.33;;;;;;;19.82;44.85;101221.63;5012498;28;20025;-66
2021/04/19 09:45:45;;;;;;;23.45;17.45;;;;;;;18.54;49.67;101215.53;5003177;28;20033;-66
2021/04/19 09:48:28;;;;;;;22.17;17.80;;;;;;;19.10;46.90;101224.28;4992649;28;20022;-67
2021/04/19 09:50:55;;;;;;;21.63;17.92;;;;;;;18.39;49.20;101227.59;4992895;28;20054;-67
2021/04/19 09:53:21;;;;;;;20.67;18.48;;;;;;;18.94;49.73;101224.81;4975321;28;20547;-67
2021/04/19 09:55:46;;;;;;;21.67;18.88;;;;;;;19.03;47.83;101226.28;5003907;28;20042;-67
2021/04/19 09:58:13;;;;;;;19.40;16.92;;;;;;;18.57;49.74;101220.75;4994632;28;20496;-67
2021/04/19 10:00:38;;;;;;;20.60;17.27;;;;;;;18.62;49.23;101223.28;4994618;28;20021;-66
2021/04/19 10:03:04;;;;;;;19.55;17.02;;;;;;;18.36;49.19;101219.69;5011999;28;20064;-67
2021/04/19 10:05:29;;;;;;;20.55;17.95;;;;;;;18.73;48.53;101218.44;4984666;28;20030;-67
2021/04/19 10:07:58;;;;;;;22.05;18.30;;;;;;;17.97;49.50;101227.09;4975002;28;20393;-67
2021/04/19 10:10:23;;;;;;;21.10;18.40;;;;;;;18.43;49.15;101213.22;4992286;28;20037;-66
2021/04/19 10:12:48;;;;;;;23.00;18.60;;;;;;;17.72;49.37;101222.53;4992843;28;20030;-67
2021/04/19 10:15:19;;;;;;;23.10;20.17;;;;;;;17.74;50.74;101219.81;4999328;28;20030;-68
2021/04/19 10:17:44;;;;;;;23.70;19.67;;;;;;;17.86;50.54;101218.56;4994437;28;20029;-67
2021/04/19 10:20:29;;;;;;;24.17;18.90;;;;;;;17.27;53.35;101221.19;5011925;28;20018;-66
2021/04/19 10:23:08;;;;;;;25.33;20.00;;;;;;;17.91;51.27;101209.47;5012010;28;20125;-67
2021/04/19 10:25:48;;;;;;;24.38;20.13;;;;;;;17.48;51.22;101214.34;4968088;28;20504;-66
2021/04/19 10:28:35;;;;;;;25.05;21.33;;;;;;;16.73;50.78;101210.16;4974872;28;20421;-67
2021/04/19 10:31:08;;;;;;;25.77;20.25;;;;;;;15.10;53.72;101219.09;4975143;28;20026;-67
2021/04/19 10:33:34;;;;;;;22.25;19.85;;;;;;;16.85;51.03;101208.97;4992289;28;20026;-67
2021/04/19 10:36:09;;;;;;;24.48;19.80;;;;;;;18.79;46.41;101204.88;4974785;28;20109;-66
2021/04/19 10:38:35;;;;;;;24.13;19.63;;;;;;;18.84;48.08;101202.91;4975996;28;20053;-67
2021/04/19 10:41:01;;;;;;;22.38;19.40;;;;;;;18.80;46.77;101200.38;4994939;28;20413;-67
2021/04/19 10:43:27;;;;;;;24.85;20.98;;;;;;;18.36;47.35;101201.88;4977731;28;20061;-67
2021/04/19 10:45:52;;;;;;;26.98;21.40;;;;;;;18.75;48.00;101207.69;4978886;28;20085;-67
2021/04/19 10:48:20;;;;;;;23.75;19.80;;;;;;;18.57;44.61;101204.72;4995529;28;20366;-67
2021/04/19 10:50:45;;;;;;;23.50;20.10;;;;;;;15.04;54.57;101199.75;4992789;28;20054;-67
2021/04/19 10:53:11;;;;;;;23.35;20.70;;;;;;;17.04;47.76;101199.53;4977825;28;20066;-66
2021/04/19 10:55:36;;;;;;;22.98;20.58;;;;;;;16.88;48.79;101199.09;4994739;28;20085;-67
2021/04/19 10:58:01;;;;;;;24.30;21.23;;;;;;;16.52;49.95;101200.03;4977981;28;20477;-66
2021/04/19 11:00:27;;;;;;;24.10;20.58;;;;;;;17.10;46.87;101197.69;4962075;28;20026;-67
2021/04/19 11:02:53;;;;;;;22.02;19.50;;;;;;;18.99;43.46;101187.25;4995743;28;20490;-67
2021/04/19 11:05:18;;;;;;;21.80;19.02;;;;;;;20.74;40.98;101188.44;4984379;28;20030;-67
2021/04/19 11:07:44;;;;;;;23.23;20.23;;;;;;;21.67;38.92;101194.97;4997642;28;20084;-67
2021/04/19 11:10:19;;;;;;;21.63;18.90;;;;;;;20.60;40.53;101200.63;4981141;28;20448;-67
2021/04/19 11:13:01;;;;;;;24.00;19.92;;;;;;;18.42;47.19;101200.78;5014959;28;20029;-67
2021/04/19 11:15:41;;;;;;;20.65;18.55;;;;;;;20.64;40.79;101194.19;4989533;28;20019;-67